Mesa Poleo, New Mexico
Current Conditions -  °F | °C
As of 1:53 AM on Saturday 22 Nov 2014 (Local Time) from KFMN Reporting Station
Clear Clear  
Wind Chill: 17°   Ceiling: Unl
Heat Index: 24°   Visibility: 10mi
Dew Point: 18°   Wind: 6mph
Humidity: 77%   Direction: 60°ENE
Pressure: 30.11"   Gusts: NA
Location:  36.3463°N, 107.543°W
Report Text: KFMN 220853Z AUTO 06005KT 10SM CLR M04/M08 A3011 RMK AO2 SLP201 T10441078 50001
Loading
Personal Weather Stations






























Interactive Weather Map New forecast layout! Learn more

10-Day Weather Forecast

Advertisements
Track Severe Weather on mobile